createdAt,value
2022-09-24T00:02:07.390Z,6.61
2022-09-24T00:04:35.882Z,6.59
2022-09-24T00:07:03.972Z,6.60
2022-09-24T00:09:32.116Z,6.56
2022-09-24T00:12:01.088Z,6.52
2022-09-24T00:14:29.121Z,6.41
2022-09-24T00:16:57.192Z,6.45
2022-09-24T00:19:25.494Z,6.40
2022-09-24T00:21:53.510Z,6.35
2022-09-24T00:24:39.831Z,6.27
2022-09-24T00:27:07.738Z,6.24
2022-09-24T00:29:36.173Z,6.24
2022-09-24T00:32:06.253Z,6.23
2022-09-24T00:34:34.556Z,6.19
2022-09-24T00:37:02.864Z,6.10
2022-09-24T00:39:30.915Z,6.08
2022-09-24T00:41:58.940Z,6.10
2022-09-24T00:44:41.113Z,6.15
2022-09-24T00:47:23.129Z,6.17
2022-09-24T00:49:51.835Z,6.16
2022-09-24T00:52:19.959Z,6.15
2022-09-24T00:54:48.218Z,6.20
2022-09-24T00:57:16.327Z,6.21
2022-09-24T00:59:45.490Z,6.15
2022-09-24T01:02:14.368Z,6.11
2022-09-24T01:04:42.387Z,6.15
2022-09-24T01:07:10.573Z,6.13
2022-09-24T01:09:38.655Z,6.18
2022-09-24T01:12:06.734Z,6.21
2022-09-24T01:14:37.874Z,6.23
2022-09-24T01:17:14.549Z,6.25
2022-09-24T01:20:04.123Z,6.28
2022-09-24T01:22:53.874Z,6.24
2022-09-24T01:25:41.636Z,6.21
2022-09-24T01:28:15.265Z,6.21
2022-09-24T01:30:46.367Z,6.16
2022-09-24T01:33:20.445Z,6.18
2022-09-24T01:35:57.102Z,6.20
2022-09-24T01:38:29.897Z,6.21
2022-09-24T01:41:03.252Z,6.16
2022-09-24T01:43:33.090Z,6.13
2022-09-24T01:46:03.512Z,6.12
2022-09-24T01:48:33.086Z,6.14
2022-09-24T01:51:13.076Z,6.10
2022-09-24T01:53:47.604Z,6.08
2022-09-24T01:56:24.679Z,6.06
2022-09-24T01:59:02.326Z,6.06
2022-09-24T02:01:37.841Z,6.03
2022-09-24T02:04:13.725Z,5.93
2022-09-24T02:07:07.262Z,5.95
2022-09-24T02:09:37.221Z,5.93
2022-09-24T02:12:20.064Z,5.90
2022-09-24T02:14:55.676Z,5.92
2022-09-24T02:17:30.281Z,5.96
2022-09-24T02:20:01.520Z,5.87
2022-09-24T02:22:31.153Z,5.87
2022-09-24T02:25:04.200Z,5.81
2022-09-24T02:27:32.449Z,5.85
2022-09-24T02:30:00.848Z,5.79
2022-09-24T02:32:32.441Z,5.75
2022-09-24T02:35:04.986Z,5.74
2022-09-24T02:37:38.794Z,5.77
2022-09-24T02:40:10.459Z,5.78
2022-09-24T02:42:40.432Z,5.77
2022-09-24T02:45:09.697Z,5.71
2022-09-24T02:47:37.908Z,5.77
2022-09-24T02:50:07.047Z,5.70
2022-09-24T02:52:35.186Z,5.71
2022-09-24T02:55:03.479Z,5.71
2022-09-24T02:57:31.457Z,5.71
2022-09-24T02:59:59.417Z,5.74
2022-09-24T03:02:27.489Z,5.77
2022-09-24T03:04:55.787Z,5.80
2022-09-24T03:07:28.747Z,5.82
2022-09-24T03:09:57.765Z,5.85
2022-09-24T03:12:25.735Z,5.88
2022-09-24T03:14:53.726Z,5.84
2022-09-24T03:17:21.899Z,5.87
2022-09-24T03:19:49.886Z,5.90
2022-09-24T03:22:17.817Z,5.92
2022-09-24T03:24:46.236Z,5.95
2022-09-24T03:27:14.222Z,5.97
2022-09-24T03:30:00.998Z,5.94
2022-09-24T03:32:29.373Z,5.91
2022-09-24T03:34:57.394Z,5.90
2022-09-24T03:37:25.489Z,5.91
2022-09-24T03:39:53.490Z,5.93
2022-09-24T03:42:21.618Z,5.90
2022-09-24T03:44:49.661Z,5.92
2022-09-24T03:47:18.033Z,5.95
2022-09-24T03:49:46.146Z,5.99
2022-09-24T03:52:14.161Z,6.03
2022-09-24T03:54:42.183Z,6.06
2022-09-24T03:57:10.113Z,6.01
2022-09-24T03:59:38.008Z,6.04
2022-09-24T04:02:06.060Z,6.03
2022-09-24T04:04:34.163Z,6.08
2022-09-24T04:07:02.330Z,6.14
2022-09-24T04:09:30.759Z,6.18
2022-09-24T04:11:59.196Z,6.18
2022-09-24T04:14:27.201Z,6.18
2022-09-24T04:16:55.226Z,6.14
2022-09-24T04:19:23.248Z,6.07
2022-09-24T04:21:51.210Z,6.03
2022-09-24T04:24:19.229Z,6.05
2022-09-24T04:26:47.261Z,6.09
2022-09-24T04:29:15.381Z,6.09
2022-09-24T04:31:43.444Z,6.06
2022-09-24T04:34:11.750Z,6.06
2022-09-24T04:36:39.699Z,6.13
2022-09-24T04:39:07.746Z,6.19
2022-09-24T04:41:37.315Z,6.23
2022-09-24T04:44:05.513Z,6.25
2022-09-24T04:46:34.460Z,6.28
2022-09-24T04:49:02.720Z,6.35
2022-09-24T04:51:35.663Z,6.35
2022-09-24T04:54:04.129Z,6.38
2022-09-24T04:56:32.261Z,6.39
2022-09-24T04:59:00.267Z,6.40
2022-09-24T05:01:29.656Z,6.48
2022-09-24T05:03:57.756Z,6.46
2022-09-24T05:06:25.785Z,6.52
2022-09-24T05:08:53.814Z,6.59
2022-09-24T05:11:24.786Z,6.70
2022-09-24T05:13:52.941Z,6.82
2022-09-24T05:16:20.953Z,6.88
2022-09-24T05:18:52.089Z,6.92
2022-09-24T05:21:20.243Z,6.90
2022-09-24T05:23:48.382Z,6.87
2022-09-24T05:26:34.903Z,6.85
2022-09-24T05:29:03.086Z,6.92
2022-09-24T05:31:31.318Z,6.93
2022-09-24T05:33:59.497Z,7.01
2022-09-24T05:36:27.542Z,7.09
2022-09-24T05:38:57.593Z,7.23
2022-09-24T05:41:25.658Z,7.36
2022-09-24T05:43:53.854Z,7.49
2022-09-24T05:46:21.934Z,7.59
2022-09-24T05:48:50.069Z,7.73
2022-09-24T05:51:18.753Z,7.81
2022-09-24T05:53:46.734Z,7.92
2022-09-24T05:56:14.774Z,8.07
2022-09-24T05:58:42.950Z,8.22
2022-09-24T06:01:10.914Z,8.35
2022-09-24T06:03:38.825Z,8.54
2022-09-24T06:06:06.910Z,8.67
2022-09-24T06:08:34.993Z,8.76
2022-09-24T06:11:06.045Z,8.85
2022-09-24T06:13:35.145Z,8.95
2022-09-24T06:16:11.796Z,9.06
2022-09-24T06:18:42.158Z,9.14
2022-09-24T06:21:15.600Z,9.22
2022-09-24T06:23:45.484Z,9.32
2022-09-24T06:26:14.393Z,9.46
2022-09-24T06:28:43.041Z,9.60
2022-09-24T06:31:12.550Z,9.80
2022-09-24T06:33:41.096Z,9.96
2022-09-24T06:36:09.378Z,10.12
2022-09-24T06:38:39.455Z,10.28
2022-09-24T06:41:11.765Z,10.48
2022-09-24T06:43:40.010Z,10.65
2022-09-24T06:46:08.291Z,10.79
2022-09-24T06:48:45.019Z,10.83
2022-09-24T06:51:13.037Z,10.88
2022-09-24T06:53:41.278Z,10.96
2022-09-24T06:56:10.178Z,11.10
2022-09-24T06:58:38.338Z,11.21
2022-09-24T07:01:07.160Z,11.30
2022-09-24T07:03:36.060Z,11.37
2022-09-24T07:06:06.063Z,11.45
2022-09-24T07:08:34.436Z,11.57
2022-09-24T07:11:02.697Z,11.68
2022-09-24T07:13:31.169Z,11.77
2022-09-24T07:16:01.512Z,11.84
2022-09-24T07:18:29.815Z,12.00
2022-09-24T07:20:57.911Z,12.12
2022-09-24T07:23:27.882Z,12.14
2022-09-24T07:25:57.439Z,12.24
2022-09-24T07:28:26.049Z,12.35
2022-09-24T07:30:58.959Z,12.41
2022-09-24T07:33:27.153Z,12.48
2022-09-24T07:35:55.315Z,12.44
2022-09-24T07:38:23.397Z,12.45
2022-09-24T07:40:51.460Z,12.46
2022-09-24T07:43:21.419Z,12.41
2022-09-24T07:45:49.459Z,12.40
2022-09-24T07:48:17.639Z,12.42
2022-09-24T07:50:45.647Z,12.51
2022-09-24T07:53:15.353Z,12.46
2022-09-24T07:55:52.806Z,12.36
2022-09-24T07:58:24.358Z,12.20
2022-09-24T08:00:52.755Z,12.16
2022-09-24T08:03:20.834Z,12.05
2022-09-24T08:05:49.366Z,11.86
2022-09-24T08:08:20.035Z,11.90
2022-09-24T08:10:48.125Z,11.98
2022-09-24T08:13:16.381Z,12.05
2022-09-24T08:15:44.485Z,12.08
2022-09-24T08:18:12.557Z,12.10
2022-09-24T08:20:40.654Z,12.11
2022-09-24T08:23:10.648Z,12.27
2022-09-24T08:25:38.845Z,12.43
2022-09-24T08:28:08.537Z,12.47
2022-09-24T08:30:36.594Z,12.49
2022-09-24T08:33:09.037Z,12.51
2022-09-24T08:35:40.116Z,12.66
2022-09-24T08:38:09.139Z,12.68
2022-09-24T08:40:44.053Z,12.91
2022-09-24T08:43:24.529Z,13.18
2022-09-24T08:46:15.727Z,13.50
2022-09-24T08:48:51.575Z,13.75
2022-09-24T08:51:22.367Z,13.95
2022-09-24T08:53:53.273Z,14.19
2022-09-24T08:56:32.456Z,14.43
2022-09-24T08:59:05.824Z,14.69
2022-09-24T09:01:39.076Z,14.87
2022-09-24T09:04:19.202Z,14.91
2022-09-24T09:06:47.098Z,14.78
2022-09-24T09:09:19.948Z,14.72
2022-09-24T09:11:51.661Z,14.88
2022-09-24T09:14:29.263Z,15.03
2022-09-24T09:17:03.503Z,15.25
2022-09-24T09:19:34.658Z,15.21
2022-09-24T09:22:14.250Z,15.38
2022-09-24T09:24:47.874Z,15.53
2022-09-24T09:27:17.459Z,15.58
2022-09-24T09:29:47.906Z,15.83
2022-09-24T09:33:00.450Z,16.07
2022-09-24T09:35:44.057Z,16.35
2022-09-24T09:38:27.036Z,16.42
2022-09-24T09:41:06.793Z,16.44
2022-09-24T09:43:35.447Z,16.61
2022-09-24T09:46:11.287Z,16.66
2022-09-24T09:48:52.283Z,16.84
2022-09-24T09:51:24.470Z,16.94
2022-09-24T09:53:56.727Z,16.79
2022-09-24T09:56:30.975Z,16.59
2022-09-24T09:59:07.201Z,16.75
2022-09-24T10:01:38.182Z,16.62
2022-09-24T10:04:06.738Z,16.81
2022-09-24T10:06:36.144Z,16.94
2022-09-24T10:09:13.333Z,17.15
2022-09-24T10:11:42.272Z,17.40
2022-09-24T10:14:13.582Z,17.33
2022-09-24T10:16:44.541Z,17.16
2022-09-24T10:19:15.459Z,17.07
2022-09-24T10:21:43.748Z,16.96
2022-09-24T10:24:25.263Z,16.84
2022-09-24T10:26:54.257Z,16.74
2022-09-24T10:29:43.889Z,16.53
2022-09-24T10:32:19.508Z,16.29
2022-09-24T10:35:00.576Z,16.36
2022-09-24T10:37:29.674Z,16.16
2022-09-24T10:40:15.407Z,16.15
2022-09-24T10:42:43.673Z,16.22
2022-09-24T10:45:15.923Z,15.96
2022-09-24T10:47:53.443Z,15.73
2022-09-24T10:50:34.450Z,15.91
2022-09-24T10:53:39.534Z,15.98
2022-09-24T10:56:11.719Z,16.01
2022-09-24T10:59:01.757Z,16.06
2022-09-24T11:01:44.624Z,16.16
2022-09-24T11:04:27.485Z,16.24
2022-09-24T11:07:22.793Z,16.41
2022-09-24T11:10:01.804Z,16.47
2022-09-24T11:12:44.330Z,16.31
2022-09-24T11:15:40.733Z,16.50
2022-09-24T11:18:20.853Z,16.43
2022-09-24T11:21:43.214Z,15.88
2022-09-24T11:24:37.627Z,16.50
2022-09-24T11:27:24.173Z,16.47
2022-09-24T11:29:55.144Z,16.46
2022-09-24T11:32:29.066Z,16.64
2022-09-24T11:35:18.554Z,16.65
2022-09-24T11:38:08.454Z,16.83
2022-09-24T11:40:42.123Z,17.14
2022-09-24T11:43:38.036Z,17.40
2022-09-24T11:46:30.598Z,17.58
2022-09-24T11:49:16.156Z,17.53
2022-09-24T11:52:00.432Z,17.47
2022-09-24T11:54:46.148Z,17.48
2022-09-24T11:57:25.060Z,17.48
2022-09-24T12:00:00.773Z,17.41
2022-09-24T12:02:38.088Z,17.45
2022-09-24T12:05:38.949Z,17.66
2022-09-24T12:08:29.260Z,17.86
2022-09-24T12:11:04.294Z,17.95
2022-09-24T12:13:46.090Z,17.79
2022-09-24T12:16:24.683Z,17.55
2022-09-24T12:18:58.868Z,17.42
2022-09-24T12:21:34.042Z,17.14
2022-09-24T12:24:13.784Z,17.01
2022-09-24T12:26:43.742Z,17.04
2022-09-24T12:29:40.605Z,16.78
2022-09-24T12:32:16.935Z,16.69
2022-09-24T12:35:02.384Z,16.71
2022-09-24T12:37:38.628Z,17.05
2022-09-24T12:40:12.445Z,17.31
2022-09-24T12:42:47.914Z,17.27
2022-09-24T12:45:23.146Z,17.02
2022-09-24T12:47:59.946Z,16.91
2022-09-24T12:50:31.454Z,16.80
2022-09-24T12:53:00.111Z,16.88
2022-09-24T12:55:30.956Z,16.79
2022-09-24T12:58:12.062Z,16.81
2022-09-24T13:00:47.263Z,17.10
2022-09-24T13:03:47.283Z,17.25
2022-09-24T13:06:34.691Z,17.11
2022-09-24T13:09:25.586Z,16.87
2022-09-24T13:12:15.759Z,16.48
2022-09-24T13:14:51.942Z,16.24
2022-09-24T13:17:20.195Z,16.46
2022-09-24T13:19:59.168Z,16.67
2022-09-24T13:22:35.644Z,16.82
2022-09-24T13:25:18.102Z,16.73
2022-09-24T13:28:02.774Z,16.62
2022-09-24T13:30:31.042Z,16.63
2022-09-24T13:33:04.359Z,16.72
2022-09-24T13:35:42.010Z,16.81
2022-09-24T13:38:22.007Z,16.78
2022-09-24T13:41:01.735Z,16.60
2022-09-24T13:43:35.735Z,16.55
2022-09-24T13:46:08.595Z,16.42
2022-09-24T13:48:41.417Z,16.49
2022-09-24T13:51:13.169Z,16.55
2022-09-24T13:56:39.318Z,16.59
2022-09-24T13:59:12.860Z,16.49
2022-09-24T14:01:47.261Z,16.40
2022-09-24T14:04:21.882Z,16.27
2022-09-24T14:06:55.256Z,16.19
2022-09-24T14:09:23.508Z,16.06
2022-09-24T14:11:53.544Z,16.06
2022-09-24T14:14:26.808Z,16.04
2022-09-24T14:17:06.680Z,16.13
2022-09-24T14:19:36.311Z,16.20
2022-09-24T14:22:12.139Z,16.16
2022-09-24T14:24:45.485Z,16.04
2022-09-24T14:27:19.652Z,15.98
2022-09-24T14:29:57.781Z,15.87
2022-09-24T14:32:35.339Z,15.81
2022-09-24T14:35:17.634Z,15.69
2022-09-24T14:37:58.454Z,15.66
2022-09-24T14:40:28.718Z,15.66
2022-09-24T14:43:02.809Z,15.60
2022-09-24T14:45:36.323Z,15.47
2022-09-24T14:48:26.685Z,15.34
2022-09-24T14:50:54.831Z,15.23
2022-09-24T14:53:30.064Z,15.21
2022-09-24T14:55:58.238Z,15.17
2022-09-24T14:58:29.046Z,15.13
2022-09-24T15:01:03.196Z,15.08
2022-09-24T15:03:34.196Z,14.98
2022-09-24T15:06:18.699Z,14.93
2022-09-24T15:09:06.289Z,14.86
2022-09-24T15:11:37.602Z,14.84
2022-09-24T15:14:08.839Z,14.75
2022-09-24T15:16:37.135Z,14.74
2022-09-24T15:19:17.460Z,14.75
2022-09-24T15:21:53.634Z,14.71
2022-09-24T15:24:22.288Z,14.67
2022-09-24T15:27:00.991Z,14.62
2022-09-24T15:29:29.237Z,14.56
2022-09-24T15:31:59.005Z,14.44
2022-09-24T15:34:28.526Z,14.37
2022-09-24T15:36:59.782Z,14.22
2022-09-24T15:39:28.581Z,14.05
2022-09-24T15:41:56.729Z,13.97
2022-09-24T15:44:31.232Z,13.88
2022-09-24T15:47:02.173Z,13.82
2022-09-24T15:49:30.401Z,13.69
2022-09-24T15:52:14.187Z,13.60
2022-09-24T15:54:47.341Z,13.49
2022-09-24T15:57:16.770Z,13.37
2022-09-24T15:59:45.087Z,13.20
2022-09-24T16:02:34.507Z,13.08
2022-09-24T16:05:04.171Z,12.94
2022-09-24T16:07:32.871Z,12.86
2022-09-24T16:10:01.244Z,12.81
2022-09-24T16:12:29.411Z,12.71
2022-09-24T16:14:59.361Z,12.62
2022-09-24T16:17:29.680Z,12.63
2022-09-24T16:19:57.744Z,12.52
2022-09-24T16:22:25.877Z,12.47
2022-09-24T16:24:54.456Z,12.44
2022-09-24T16:27:22.673Z,12.34
2022-09-24T16:29:50.778Z,12.29
2022-09-24T16:32:18.759Z,12.26
2022-09-24T16:34:46.834Z,12.20
2022-09-24T16:37:16.650Z,12.15
2022-09-24T16:39:44.646Z,12.07
2022-09-24T16:42:12.788Z,12.05
2022-09-24T16:44:41.243Z,11.95
2022-09-24T16:47:09.300Z,11.93
2022-09-24T16:49:40.519Z,11.88
2022-09-24T16:52:08.566Z,11.83
2022-09-24T16:54:36.829Z,11.63
2022-09-24T16:57:06.265Z,11.60
2022-09-24T16:59:34.836Z,11.55
2022-09-24T17:02:03.190Z,11.56
2022-09-24T17:04:31.531Z,11.49
2022-09-24T17:06:59.498Z,11.52
2022-09-24T17:09:46.114Z,11.36
2022-09-24T17:12:14.146Z,11.33
2022-09-24T17:14:45.560Z,11.30
2022-09-24T17:17:14.575Z,11.27
2022-09-24T17:19:42.775Z,11.22
2022-09-24T17:22:10.791Z,11.15
2022-09-24T17:24:40.140Z,11.13
2022-09-24T17:27:08.421Z,11.06
2022-09-24T17:29:36.640Z,11.09
2022-09-24T17:32:04.774Z,11.07
2022-09-24T17:34:33.311Z,11.03
2022-09-24T17:37:01.260Z,10.99
2022-09-24T17:39:30.862Z,10.90
2022-09-24T17:41:58.957Z,10.75
2022-09-24T17:44:26.969Z,10.71
2022-09-24T17:46:55.642Z,10.64
2022-09-24T17:49:23.643Z,10.57
2022-09-24T17:51:51.794Z,10.59
2022-09-24T17:54:21.572Z,10.57
2022-09-24T17:56:49.961Z,10.53
2022-09-24T17:59:19.399Z,10.42
2022-09-24T18:01:51.411Z,10.37
2022-09-24T18:04:20.889Z,10.33
2022-09-24T18:06:49.750Z,10.30
2022-09-24T18:09:19.949Z,10.29
2022-09-24T18:11:52.682Z,10.17
2022-09-24T18:14:23.097Z,10.17
2022-09-24T18:16:51.591Z,10.18
2022-09-24T18:19:19.877Z,10.16
2022-09-24T18:21:49.293Z,10.12
2022-09-24T18:24:17.528Z,9.95
2022-09-24T18:26:51.344Z,9.95
2022-09-24T18:29:21.250Z,9.82
2022-09-24T18:31:51.497Z,9.84
2022-09-24T18:34:19.648Z,9.82
2022-09-24T18:36:47.769Z,9.72
2022-09-24T18:39:21.990Z,9.69
2022-09-24T18:41:53.089Z,9.66
2022-09-24T18:44:21.652Z,9.59
2022-09-24T18:46:50.009Z,9.63
2022-09-24T18:49:24.561Z,9.66
2022-09-24T18:51:52.848Z,9.69
2022-09-24T18:54:20.901Z,9.69
2022-09-24T18:56:49.086Z,9.67
2022-09-24T18:59:19.712Z,9.64
2022-09-24T19:01:49.327Z,9.68
2022-09-24T19:04:18.486Z,9.65
2022-09-24T19:06:50.739Z,9.67
2022-09-24T19:09:20.338Z,9.68
2022-09-24T19:11:48.897Z,9.59
2022-09-24T19:14:20.600Z,9.58
2022-09-24T19:16:48.598Z,9.57
2022-09-24T19:19:24.351Z,9.53
2022-09-24T19:21:54.932Z,9.54
2022-09-24T19:24:23.062Z,9.57
2022-09-24T19:26:51.150Z,9.55
2022-09-24T19:29:19.160Z,9.53
2022-09-24T19:31:48.897Z,9.53
2022-09-24T19:34:16.933Z,9.54
2022-09-24T19:36:45.615Z,9.52
2022-09-24T19:39:16.375Z,9.42
2022-09-24T19:41:45.207Z,9.39
2022-09-24T19:44:16.586Z,9.36
2022-09-24T19:46:45.104Z,9.35
2022-09-24T19:49:13.789Z,9.26
2022-09-24T19:51:41.882Z,9.23
2022-09-24T19:54:10.746Z,9.15
2022-09-24T19:56:40.179Z,9.07
2022-09-24T19:59:13.784Z,9.06
2022-09-24T20:01:48.712Z,9.05
2022-09-24T20:04:17.345Z,9.07
2022-09-24T20:06:45.529Z,9.05
2022-09-24T20:09:13.475Z,9.07
2022-09-24T20:11:41.547Z,9.05
2022-09-24T20:14:11.414Z,9.00
2022-09-24T20:16:42.842Z,9.01
2022-09-24T20:19:15.003Z,9.00
2022-09-24T20:21:43.020Z,9.00
2022-09-24T20:24:12.691Z,9.02
2022-09-24T20:26:55.135Z,9.07
2022-09-24T20:29:23.831Z,9.10
2022-09-24T20:31:53.574Z,9.09
2022-09-24T20:34:33.631Z,9.05
2022-09-24T20:37:05.712Z,9.01
2022-09-24T20:39:34.312Z,8.97
2022-09-24T20:42:04.035Z,8.98
2022-09-24T20:44:34.810Z,8.98
2022-09-24T20:47:03.037Z,8.87
2022-09-24T20:49:31.196Z,8.86
2022-09-24T20:51:59.345Z,8.91
2022-09-24T20:54:28.775Z,8.81
2022-09-24T20:56:57.193Z,8.79
2022-09-24T20:59:27.422Z,8.84
2022-09-24T21:01:55.958Z,8.86
2022-09-24T21:04:24.541Z,8.83
2022-09-24T21:06:55.263Z,8.85
2022-09-24T21:09:23.476Z,8.92
2022-09-24T21:11:53.201Z,8.97
2022-09-24T21:14:21.954Z,9.00
2022-09-24T21:16:49.986Z,8.98
2022-09-24T21:19:18.223Z,8.83
2022-09-24T21:21:47.282Z,8.74
2022-09-24T21:24:16.401Z,8.76
2022-09-24T21:26:45.337Z,8.78
2022-09-24T21:29:16.769Z,8.68
2022-09-24T21:31:46.651Z,8.70
2022-09-24T21:34:17.460Z,8.69
2022-09-24T21:36:48.447Z,8.52
2022-09-24T21:39:18.994Z,8.51
2022-09-24T21:41:49.924Z,8.58
2022-09-24T21:44:19.285Z,8.63
2022-09-24T21:46:50.960Z,8.67
2022-09-24T21:49:19.531Z,8.69
2022-09-24T21:51:48.008Z,8.65
2022-09-24T21:54:18.090Z,8.58
2022-09-24T21:56:46.863Z,8.58
2022-09-24T21:59:30.131Z,8.58
2022-09-24T22:01:58.963Z,8.61
2022-09-24T22:04:27.999Z,8.64
2022-09-24T22:06:56.076Z,8.70
2022-09-24T22:09:24.869Z,8.79
2022-09-24T22:11:53.375Z,8.87
2022-09-24T22:14:22.453Z,8.92
2022-09-24T22:16:50.543Z,9.02
2022-09-24T22:19:18.897Z,9.05
2022-09-24T22:21:46.912Z,9.06
2022-09-24T22:24:15.496Z,9.07
2022-09-24T22:26:45.413Z,9.05
2022-09-24T22:29:13.578Z,9.04
2022-09-24T22:31:46.655Z,9.02
2022-09-24T22:34:33.107Z,9.02
2022-09-24T22:37:05.515Z,9.03
2022-09-24T22:39:34.203Z,8.98
2022-09-24T22:42:02.226Z,9.01
2022-09-24T22:44:30.258Z,9.01
2022-09-24T22:46:58.430Z,9.00
2022-09-24T22:49:26.402Z,9.03
2022-09-24T22:51:54.493Z,8.98
2022-09-24T22:54:24.301Z,9.01
2022-09-24T22:56:52.337Z,9.12
2022-09-24T22:59:20.278Z,9.24
2022-09-24T23:01:51.551Z,9.33
2022-09-24T23:04:20.652Z,9.38
2022-09-24T23:06:48.707Z,9.35
2022-09-24T23:09:16.722Z,9.34
2022-09-24T23:11:44.664Z,9.35
2022-09-24T23:14:16.563Z,9.47
2022-09-24T23:16:44.748Z,9.52
2022-09-24T23:19:16.478Z,9.51
2022-09-24T23:21:45.030Z,9.53
2022-09-24T23:24:22.057Z,9.55
2022-09-24T23:26:51.183Z,9.54
2022-09-24T23:29:19.272Z,9.48
2022-09-24T23:31:47.547Z,9.32
2022-09-24T23:34:15.590Z,9.34
2022-09-24T23:36:45.302Z,9.37
2022-09-24T23:39:13.787Z,9.24
2022-09-24T23:41:46.839Z,9.21
2022-09-24T23:44:15.011Z,9.29
2022-09-24T23:46:43.158Z,9.27
2022-09-24T23:49:11.414Z,9.40
2022-09-24T23:51:39.623Z,9.45
2022-09-24T23:54:07.966Z,9.39
2022-09-24T23:56:35.904Z,9.41
2022-09-24T23:59:04.223Z,9.50
